sensor_id;sensor_type;location;lat;lon;timestamp;P1;durP1;ratioP1;P2;durP2;ratioP2
2564;SDS011;1292;48.020;7.822;2022-12-22T06:46:17;6.67;;;2.60;;
2564;SDS011;1292;48.020;7.822;2022-12-22T06:48:44;8.97;;;2.90;;
2564;SDS011;1292;48.020;7.822;2022-12-22T06:51:11;3.73;;;2.07;;
2564;SDS011;1292;48.020;7.822;2022-12-22T06:53:38;9.23;;;2.97;;
2564;SDS011;1292;48.020;7.822;2022-12-22T06:56:05;7.77;;;1.90;;
2564;SDS011;1292;48.020;7.822;2022-12-22T06:58:32;9.93;;;4.07;;
2564;SDS011;1292;48.020;7.822;2022-12-22T07:00:59;6.20;;;1.80;;
2564;SDS011;1292;48.020;7.822;2022-12-22T07:03:27;11.50;;;1.90;;
2564;SDS011;1292;48.020;7.822;2022-12-22T07:05:54;7.10;;;1.70;;
2564;SDS011;1292;48.020;7.822;2022-12-22T07:08:21;5.20;;;1.43;;
2564;SDS011;1292;48.020;7.822;2022-12-22T07:10:48;4.30;;;1.90;;
2564;SDS011;1292;48.020;7.822;2022-12-22T07:13:24;3.73;;;1.87;;
2564;SDS011;1292;48.020;7.822;2022-12-22T07:15:52;2.87;;;1.97;;
2564;SDS011;1292;48.020;7.822;2022-12-22T07:18:19;4.33;;;2.10;;
2564;SDS011;1292;48.020;7.822;2022-12-22T07:20:48;7.30;;;1.30;;
2564;SDS011;1292;48.020;7.822;2022-12-22T07:23:14;8.13;;;2.03;;
2564;SDS011;1292;48.020;7.822;2022-12-22T07:25:42;7.50;;;1.93;;
2564;SDS011;1292;48.020;7.822;2022-12-22T07:28:08;7.47;;;2.10;;
2564;SDS011;1292;48.020;7.822;2022-12-22T07:30:35;5.03;;;1.40;;
2564;SDS011;1292;48.020;7.822;2022-12-22T07:33:02;5.00;;;2.50;;
2564;SDS011;1292;48.020;7.822;2022-12-22T07:35:29;9.60;;;2.93;;
2564;SDS011;1292;48.020;7.822;2022-12-22T07:37:57;13.20;;;4.03;;
2564;SDS011;1292;48.020;7.822;2022-12-22T07:40:24;10.33;;;2.93;;
2564;SDS011;1292;48.020;7.822;2022-12-22T07:42:54;11.80;;;3.10;;
2564;SDS011;1292;48.020;7.822;2022-12-22T07:45:20;5.00;;;2.83;;
2564;SDS011;1292;48.020;7.822;2022-12-22T07:47:47;10.70;;;2.80;;
2564;SDS011;1292;48.020;7.822;2022-12-22T07:50:15;7.13;;;2.17;;
2564;SDS011;1292;48.020;7.822;2022-12-22T07:52:49;4.37;;;2.27;;
2564;SDS011;1292;48.020;7.822;2022-12-22T07:55:17;8.80;;;1.97;;
2564;SDS011;1292;48.020;7.822;2022-12-22T07:57:45;6.40;;;2.23;;
2564;SDS011;1292;48.020;7.822;2022-12-22T08:00:12;3.83;;;2.10;;
2564;SDS011;1292;48.020;7.822;2022-12-22T08:02:40;5.43;;;2.40;;
2564;SDS011;1292;48.020;7.822;2022-12-22T08:05:07;4.80;;;1.77;;
2564;SDS011;1292;48.020;7.822;2022-12-22T08:07:34;4.07;;;1.73;;
2564;SDS011;1292;48.020;7.822;2022-12-22T08:10:01;3.77;;;1.77;;
2564;SDS011;1292;48.020;7.822;2022-12-22T08:12:30;10.60;;;2.30;;
2564;SDS011;1292;48.020;7.822;2022-12-22T08:14:57;7.33;;;2.27;;
2564;SDS011;1292;48.020;7.822;2022-12-22T08:17:24;4.27;;;2.20;;
2564;SDS011;1292;48.020;7.822;2022-12-22T08:19:52;5.77;;;1.80;;
2564;SDS011;1292;48.020;7.822;2022-12-22T08:22:19;4.33;;;2.03;;
2564;SDS011;1292;48.020;7.822;2022-12-22T08:24:48;5.23;;;1.73;;
2564;SDS011;1292;48.020;7.822;2022-12-22T08:27:16;5.37;;;1.90;;
2564;SDS011;1292;48.020;7.822;2022-12-22T08:29:50;12.93;;;3.20;;
2564;SDS011;1292;48.020;7.822;2022-12-22T08:32:22;9.30;;;2.47;;
2564;SDS011;1292;48.020;7.822;2022-12-22T08:34:49;8.33;;;2.10;;
2564;SDS011;1292;48.020;7.822;2022-12-22T08:37:19;5.20;;;1.97;;
2564;SDS011;1292;48.020;7.822;2022-12-22T08:39:49;3.37;;;2.00;;
2564;SDS011;1292;48.020;7.822;2022-12-22T08:42:18;8.10;;;1.90;;
2564;SDS011;1292;48.020;7.822;2022-12-22T08:44:48;7.10;;;2.67;;
2564;SDS011;1292;48.020;7.822;2022-12-22T08:47:17;5.37;;;2.13;;
2564;SDS011;1292;48.020;7.822;2022-12-22T08:49:44;6.43;;;2.83;;
2564;SDS011;1292;48.020;7.822;2022-12-22T08:52:11;7.43;;;2.03;;
2564;SDS011;1292;48.020;7.822;2022-12-22T08:54:38;5.73;;;2.40;;
2564;SDS011;1292;48.020;7.822;2022-12-22T08:57:04;8.50;;;2.60;;
2564;SDS011;1292;48.020;7.822;2022-12-22T08:59:31;5.40;;;2.70;;
2564;SDS011;1292;48.020;7.822;2022-12-22T09:01:59;11.47;;;3.20;;
2564;SDS011;1292;48.020;7.822;2022-12-22T09:04:29;8.43;;;2.93;;
2564;SDS011;1292;48.020;7.822;2022-12-22T09:06:56;11.03;;;3.10;;
2564;SDS011;1292;48.020;7.822;2022-12-22T09:09:23;10.83;;;4.10;;
2564;SDS011;1292;48.020;7.822;2022-12-22T09:11:50;11.33;;;5.33;;
2564;SDS011;1292;48.020;7.822;2022-12-22T09:14:16;5.20;;;2.40;;
2564;SDS011;1292;48.020;7.822;2022-12-22T09:16:43;9.30;;;2.47;;
2564;SDS011;1292;48.020;7.822;2022-12-22T09:19:12;4.43;;;2.93;;
2564;SDS011;1292;48.020;7.822;2022-12-22T09:21:38;4.47;;;1.90;;
2564;SDS011;1292;48.020;7.822;2022-12-22T09:24:05;6.90;;;2.20;;
2564;SDS011;1292;48.020;7.822;2022-12-22T09:26:33;8.13;;;2.40;;
2564;SDS011;1292;48.020;7.822;2022-12-22T09:29:00;8.00;;;2.63;;
2564;SDS011;1292;48.020;7.822;2022-12-22T09:31:27;4.13;;;2.07;;
2564;SDS011;1292;48.020;7.822;2022-12-22T09:33:54;10.13;;;3.17;;
2564;SDS011;1292;48.020;7.822;2022-12-22T09:36:24;7.77;;;2.30;;
2564;SDS011;1292;48.020;7.822;2022-12-22T09:38:53;10.30;;;1.70;;
2564;SDS011;1292;48.020;7.822;2022-12-22T09:41:22;7.43;;;2.40;;
2564;SDS011;1292;48.020;7.822;2022-12-22T09:43:55;12.53;;;2.80;;
2564;SDS011;1292;48.020;7.822;2022-12-22T09:46:23;7.83;;;2.40;;
2564;SDS011;1292;48.020;7.822;2022-12-22T09:48:54;10.50;;;2.80;;
2564;SDS011;1292;48.020;7.822;2022-12-22T09:51:21;11.37;;;2.60;;
2564;SDS011;1292;48.020;7.822;2022-12-22T09:53:51;6.17;;;1.90;;
2564;SDS011;1292;48.020;7.822;2022-12-22T09:56:21;3.93;;;2.07;;
2564;SDS011;1292;48.020;7.822;2022-12-22T09:58:50;6.13;;;2.53;;
2564;SDS011;1292;48.020;7.822;2022-12-22T10:01:24;3.00;;;1.80;;
2564;SDS011;1292;48.020;7.822;2022-12-22T10:04:03;4.30;;;2.20;;
2564;SDS011;1292;48.020;7.822;2022-12-22T10:06:40;8.00;;;2.50;;
2564;SDS011;1292;48.020;7.822;2022-12-22T10:09:14;6.80;;;2.80;;
2564;SDS011;1292;48.020;7.822;2022-12-22T10:11:50;15.13;;;3.20;;
2564;SDS011;1292;48.020;7.822;2022-12-22T10:14:17;4.23;;;1.90;;
2564;SDS011;1292;48.020;7.822;2022-12-22T10:16:44;11.80;;;3.10;;
2564;SDS011;1292;48.020;7.822;2022-12-22T10:19:12;12.80;;;3.90;;
2564;SDS011;1292;48.020;7.822;2022-12-22T10:21:40;8.93;;;2.13;;
2564;SDS011;1292;48.020;7.822;2022-12-22T10:24:14;7.07;;;2.73;;
2564;SDS011;1292;48.020;7.822;2022-12-22T10:26:42;8.17;;;2.40;;
2564;SDS011;1292;48.020;7.822;2022-12-22T10:29:10;8.73;;;1.70;;
2564;SDS011;1292;48.020;7.822;2022-12-22T10:31:54;7.07;;;2.57;;
2564;SDS011;1292;48.020;7.822;2022-12-22T10:34:23;13.30;;;3.07;;
2564;SDS011;1292;48.020;7.822;2022-12-22T10:36:52;7.53;;;2.73;;
2564;SDS011;1292;48.020;7.822;2022-12-22T10:39:24;7.83;;;2.43;;
2564;SDS011;1292;48.020;7.822;2022-12-22T10:41:54;5.90;;;3.03;;
2564;SDS011;1292;48.020;7.822;2022-12-22T10:44:25;6.10;;;2.27;;
2564;SDS011;1292;48.020;7.822;2022-12-22T10:46:55;10.00;;;2.60;;
2564;SDS011;1292;48.020;7.822;2022-12-22T10:49:26;12.10;;;2.50;;
2564;SDS011;1292;48.020;7.822;2022-12-22T10:52:09;10.30;;;2.43;;
2564;SDS011;1292;48.020;7.822;2022-12-22T10:54:39;10.10;;;3.13;;
2564;SDS011;1292;48.020;7.822;2022-12-22T10:57:19;12.77;;;2.60;;
2564;SDS011;1292;48.020;7.822;2022-12-22T10:59:53;9.83;;;2.20;;
2564;SDS011;1292;48.020;7.822;2022-12-22T11:02:27;8.43;;;3.17;;
2564;SDS011;1292;48.020;7.822;2022-12-22T11:05:00;10.27;;;2.63;;
2564;SDS011;1292;48.020;7.822;2022-12-22T11:07:31;5.63;;;1.70;;
2564;SDS011;1292;48.020;7.822;2022-12-22T11:09:59;8.47;;;2.00;;
2564;SDS011;1292;48.020;7.822;2022-12-22T11:12:27;6.40;;;2.50;;
2564;SDS011;1292;48.020;7.822;2022-12-22T11:15:05;5.30;;;2.00;;
2564;SDS011;1292;48.020;7.822;2022-12-22T11:17:42;7.90;;;2.50;;
2564;SDS011;1292;48.020;7.822;2022-12-22T11:20:26;6.90;;;2.20;;
2564;SDS011;1292;48.020;7.822;2022-12-22T11:23:02;5.93;;;2.63;;
2564;SDS011;1292;48.020;7.822;2022-12-22T11:25:39;4.27;;;2.10;;
2564;SDS011;1292;48.020;7.822;2022-12-22T11:28:30;8.00;;;2.63;;
2564;SDS011;1292;48.020;7.822;2022-12-22T11:31:11;9.80;;;3.43;;
2564;SDS011;1292;48.020;7.822;2022-12-22T11:33:50;10.40;;;3.40;;
2564;SDS011;1292;48.020;7.822;2022-12-22T11:36:28;11.67;;;3.00;;
2564;SDS011;1292;48.020;7.822;2022-12-22T11:39:07;4.63;;;1.83;;
2564;SDS011;1292;48.020;7.822;2022-12-22T11:41:41;13.33;;;3.03;;
2564;SDS011;1292;48.020;7.822;2022-12-22T11:44:27;11.40;;;3.10;;
2564;SDS011;1292;48.020;7.822;2022-12-22T11:47:02;10.50;;;2.57;;
2564;SDS011;1292;48.020;7.822;2022-12-22T11:49:42;8.03;;;3.27;;
2564;SDS011;1292;48.020;7.822;2022-12-22T11:52:22;12.77;;;3.20;;
2564;SDS011;1292;48.020;7.822;2022-12-22T11:55:13;8.57;;;2.60;;
2564;SDS011;1292;48.020;7.822;2022-12-22T11:57:49;12.90;;;3.10;;
2564;SDS011;1292;48.020;7.822;2022-12-22T12:00:24;9.30;;;3.33;;
2564;SDS011;1292;48.020;7.822;2022-12-22T12:06:16;9.93;;;2.90;;
2564;SDS011;1292;48.020;7.822;2022-12-22T12:08:58;16.03;;;3.60;;
2564;SDS011;1292;48.020;7.822;2022-12-22T12:11:40;9.27;;;2.50;;
2564;SDS011;1292;48.020;7.822;2022-12-22T12:14:15;14.93;;;3.77;;
2564;SDS011;1292;48.020;7.822;2022-12-22T12:16:49;14.53;;;3.40;;
2564;SDS011;1292;48.020;7.822;2022-12-22T12:22:33;12.17;;;3.97;;
2564;SDS011;1292;48.020;7.822;2022-12-22T12:25:15;7.30;;;2.77;;
2564;SDS011;1292;48.020;7.822;2022-12-22T12:27:55;3.33;;;1.83;;
2564;SDS011;1292;48.020;7.822;2022-12-22T12:30:39;11.00;;;1.90;;
2564;SDS011;1292;48.020;7.822;2022-12-22T12:33:13;15.03;;;3.80;;
2564;SDS011;1292;48.020;7.822;2022-12-22T12:35:48;9.73;;;3.23;;
2564;SDS011;1292;48.020;7.822;2022-12-22T12:38:21;12.23;;;3.20;;
2564;SDS011;1292;48.020;7.822;2022-12-22T12:40:57;7.77;;;3.60;;
2564;SDS011;1292;48.020;7.822;2022-12-22T12:43:32;11.37;;;2.97;;
2564;SDS011;1292;48.020;7.822;2022-12-22T12:46:00;9.87;;;5.07;;
2564;SDS011;1292;48.020;7.822;2022-12-22T12:49:10;10.07;;;3.03;;
2564;SDS011;1292;48.020;7.822;2022-12-22T12:52:15;7.17;;;2.90;;
2564;SDS011;1292;48.020;7.822;2022-12-22T12:54:42;10.47;;;2.73;;
2564;SDS011;1292;48.020;7.822;2022-12-22T13:00:39;9.20;;;3.00;;
2564;SDS011;1292;48.020;7.822;2022-12-22T13:03:08;11.33;;;3.00;;
2564;SDS011;1292;48.020;7.822;2022-12-22T13:05:47;11.60;;;3.30;;
2564;SDS011;1292;48.020;7.822;2022-12-22T13:08:16;9.17;;;2.97;;
2564;SDS011;1292;48.020;7.822;2022-12-22T13:13:47;15.97;;;3.70;;
2564;SDS011;1292;48.020;7.822;2022-12-22T13:16:21;9.40;;;4.03;;
2564;SDS011;1292;48.020;7.822;2022-12-22T13:18:51;12.60;;;2.73;;
2564;SDS011;1292;48.020;7.822;2022-12-22T13:21:23;13.60;;;2.80;;
2564;SDS011;1292;48.020;7.822;2022-12-22T13:23:55;7.80;;;3.07;;
2564;SDS011;1292;48.020;7.822;2022-12-22T13:26:25;13.33;;;4.40;;
2564;SDS011;1292;48.020;7.822;2022-12-22T13:28:57;15.83;;;4.43;;
2564;SDS011;1292;48.020;7.822;2022-12-22T13:31:27;10.73;;;5.47;;
2564;SDS011;1292;48.020;7.822;2022-12-22T13:34:02;17.17;;;3.70;;
2564;SDS011;1292;48.020;7.822;2022-12-22T13:36:32;11.80;;;3.80;;
2564;SDS011;1292;48.020;7.822;2022-12-22T13:39:02;11.07;;;4.40;;
2564;SDS011;1292;48.020;7.822;2022-12-22T13:41:31;6.20;;;2.73;;
2564;SDS011;1292;48.020;7.822;2022-12-22T13:44:01;7.63;;;3.23;;
2564;SDS011;1292;48.020;7.822;2022-12-22T13:46:33;11.00;;;3.47;;
2564;SDS011;1292;48.020;7.822;2022-12-22T13:49:01;14.77;;;3.00;;
2564;SDS011;1292;48.020;7.822;2022-12-22T13:51:29;13.90;;;3.27;;
2564;SDS011;1292;48.020;7.822;2022-12-22T13:54:01;8.97;;;3.03;;
2564;SDS011;1292;48.020;7.822;2022-12-22T13:56:33;11.47;;;2.97;;
2564;SDS011;1292;48.020;7.822;2022-12-22T13:59:03;7.00;;;3.60;;
2564;SDS011;1292;48.020;7.822;2022-12-22T14:01:48;15.87;;;3.40;;
2564;SDS011;1292;48.020;7.822;2022-12-22T14:04:15;7.23;;;2.90;;
2564;SDS011;1292;48.020;7.822;2022-12-22T14:06:43;10.70;;;3.63;;
2564;SDS011;1292;48.020;7.822;2022-12-22T14:09:11;17.47;;;3.00;;
2564;SDS011;1292;48.020;7.822;2022-12-22T14:11:40;7.60;;;2.83;;
2564;SDS011;1292;48.020;7.822;2022-12-22T14:14:08;11.30;;;3.70;;
2564;SDS011;1292;48.020;7.822;2022-12-22T14:16:41;12.83;;;3.33;;
2564;SDS011;1292;48.020;7.822;2022-12-22T14:19:11;14.70;;;4.50;;
2564;SDS011;1292;48.020;7.822;2022-12-22T14:21:39;8.47;;;3.33;;
2564;SDS011;1292;48.020;7.822;2022-12-22T14:24:08;6.30;;;1.77;;
2564;SDS011;1292;48.020;7.822;2022-12-22T14:26:39;11.07;;;3.43;;
2564;SDS011;1292;48.020;7.822;2022-12-22T14:29:06;15.30;;;3.93;;
2564;SDS011;1292;48.020;7.822;2022-12-22T14:31:49;12.40;;;3.67;;
2564;SDS011;1292;48.020;7.822;2022-12-22T14:34:24;9.67;;;4.47;;
2564;SDS011;1292;48.020;7.822;2022-12-22T14:36:51;15.17;;;3.93;;
2564;SDS011;1292;48.020;7.822;2022-12-22T14:39:20;12.27;;;4.67;;
2564;SDS011;1292;48.020;7.822;2022-12-22T14:41:49;13.67;;;6.10;;
2564;SDS011;1292;48.020;7.822;2022-12-22T14:44:19;12.33;;;4.60;;
2564;SDS011;1292;48.020;7.822;2022-12-22T14:47:02;11.00;;;5.40;;
2564;SDS011;1292;48.020;7.822;2022-12-22T14:49:41;9.70;;;3.30;;
2564;SDS011;1292;48.020;7.822;2022-12-22T14:52:15;15.00;;;5.10;;
2564;SDS011;1292;48.020;7.822;2022-12-22T14:54:47;16.57;;;5.63;;
2564;SDS011;1292;48.020;7.822;2022-12-22T14:57:18;10.77;;;4.90;;
2564;SDS011;1292;48.020;7.822;2022-12-22T14:59:57;15.00;;;4.93;;
2564;SDS011;1292;48.020;7.822;2022-12-22T15:02:26;9.97;;;4.03;;
2564;SDS011;1292;48.020;7.822;2022-12-22T15:05:06;16.53;;;4.37;;
2564;SDS011;1292;48.020;7.822;2022-12-22T15:07:42;11.83;;;4.17;;
2564;SDS011;1292;48.020;7.822;2022-12-22T15:10:11;16.03;;;3.83;;
2564;SDS011;1292;48.020;7.822;2022-12-22T15:12:38;11.00;;;3.67;;
2564;SDS011;1292;48.020;7.822;2022-12-22T15:15:10;7.03;;;3.33;;
2564;SDS011;1292;48.020;7.822;2022-12-22T15:17:42;17.50;;;2.97;;
2564;SDS011;1292;48.020;7.822;2022-12-22T15:20:13;7.63;;;2.70;;
2564;SDS011;1292;48.020;7.822;2022-12-22T15:22:43;11.33;;;4.53;;
2564;SDS011;1292;48.020;7.822;2022-12-22T15:25:11;7.80;;;3.03;;
2564;SDS011;1292;48.020;7.822;2022-12-22T15:27:39;12.43;;;4.00;;
2564;SDS011;1292;48.020;7.822;2022-12-22T15:30:06;11.47;;;3.87;;
2564;SDS011;1292;48.020;7.822;2022-12-22T15:32:34;9.90;;;4.00;;
2564;SDS011;1292;48.020;7.822;2022-12-22T15:35:01;5.17;;;2.77;;
2564;SDS011;1292;48.020;7.822;2022-12-22T15:37:29;8.13;;;3.27;;
2564;SDS011;1292;48.020;7.822;2022-12-22T15:39:56;10.00;;;2.80;;
2564;SDS011;1292;48.020;7.822;2022-12-22T15:42:23;10.87;;;2.63;;
2564;SDS011;1292;48.020;7.822;2022-12-22T15:44:50;16.10;;;3.20;;
2564;SDS011;1292;48.020;7.822;2022-12-22T15:47:17;6.53;;;2.20;;
2564;SDS011;1292;48.020;7.822;2022-12-22T15:49:45;9.37;;;2.60;;
2564;SDS011;1292;48.020;7.822;2022-12-22T15:52:12;6.77;;;3.37;;
2564;SDS011;1292;48.020;7.822;2022-12-22T15:54:40;14.60;;;4.00;;
2564;SDS011;1292;48.020;7.822;2022-12-22T15:57:08;5.93;;;2.40;;
2564;SDS011;1292;48.020;7.822;2022-12-22T15:59:38;10.23;;;3.47;;
2564;SDS011;1292;48.020;7.822;2022-12-22T16:02:07;7.00;;;2.40;;
2564;SDS011;1292;48.020;7.822;2022-12-22T16:04:36;6.93;;;3.73;;
2564;SDS011;1292;48.020;7.822;2022-12-22T16:07:03;10.23;;;2.80;;
2564;SDS011;1292;48.020;7.822;2022-12-22T16:09:31;16.53;;;2.97;;
2564;SDS011;1292;48.020;7.822;2022-12-22T16:12:08;10.07;;;2.70;;
2564;SDS011;1292;48.020;7.822;2022-12-22T16:14:37;7.63;;;3.63;;
2564;SDS011;1292;48.020;7.822;2022-12-22T16:17:05;8.70;;;3.40;;
2564;SDS011;1292;48.020;7.822;2022-12-22T16:19:38;10.40;;;2.80;;
2564;SDS011;1292;48.020;7.822;2022-12-22T16:22:06;10.40;;;3.50;;
2564;SDS011;1292;48.020;7.822;2022-12-22T16:24:33;7.33;;;4.50;;
2564;SDS011;1292;48.020;7.822;2022-12-22T16:27:02;9.57;;;2.80;;
2564;SDS011;1292;48.020;7.822;2022-12-22T16:29:31;8.30;;;3.10;;
2564;SDS011;1292;48.020;7.822;2022-12-22T16:32:12;7.47;;;4.00;;
2564;SDS011;1292;48.020;7.822;2022-12-22T16:34:41;10.83;;;3.83;;
2564;SDS011;1292;48.020;7.822;2022-12-22T16:37:08;10.13;;;4.80;;
2564;SDS011;1292;48.020;7.822;2022-12-22T16:39:35;17.97;;;6.10;;
2564;SDS011;1292;48.020;7.822;2022-12-22T16:42:01;7.77;;;3.63;;
2564;SDS011;1292;48.020;7.822;2022-12-22T16:44:28;9.30;;;3.03;;
2564;SDS011;1292;48.020;7.822;2022-12-22T16:46:56;12.73;;;3.63;;
2564;SDS011;1292;48.020;7.822;2022-12-22T16:49:24;9.97;;;4.37;;
2564;SDS011;1292;48.020;7.822;2022-12-22T16:51:51;8.53;;;3.77;;
2564;SDS011;1292;48.020;7.822;2022-12-22T16:54:19;8.13;;;3.77;;
2564;SDS011;1292;48.020;7.822;2022-12-22T16:56:46;10.30;;;4.03;;
2564;SDS011;1292;48.020;7.822;2022-12-22T16:59:15;13.23;;;4.23;;
2564;SDS011;1292;48.020;7.822;2022-12-22T17:01:44;8.50;;;3.00;;
2564;SDS011;1292;48.020;7.822;2022-12-22T17:04:16;13.13;;;3.60;;
2564;SDS011;1292;48.020;7.822;2022-12-22T17:06:47;7.03;;;3.00;;
2564;SDS011;1292;48.020;7.822;2022-12-22T17:09:16;9.97;;;2.70;;
2564;SDS011;1292;48.020;7.822;2022-12-22T17:11:45;9.90;;;2.90;;
2564;SDS011;1292;48.020;7.822;2022-12-22T17:14:15;4.97;;;2.77;;
2564;SDS011;1292;48.020;7.822;2022-12-22T17:16:52;4.67;;;2.17;;
2564;SDS011;1292;48.020;7.822;2022-12-22T17:19:19;10.13;;;3.07;;
2564;SDS011;1292;48.020;7.822;2022-12-22T17:21:46;8.20;;;2.90;;
2564;SDS011;1292;48.020;7.822;2022-12-22T17:24:13;6.00;;;3.37;;
2564;SDS011;1292;48.020;7.822;2022-12-22T17:26:42;6.07;;;2.80;;
2564;SDS011;1292;48.020;7.822;2022-12-22T17:29:11;11.73;;;3.77;;
2564;SDS011;1292;48.020;7.822;2022-12-22T17:31:40;9.93;;;3.60;;
2564;SDS011;1292;48.020;7.822;2022-12-22T17:34:12;7.33;;;2.70;;
2564;SDS011;1292;48.020;7.822;2022-12-22T17:36:40;9.47;;;3.80;;
2564;SDS011;1292;48.020;7.822;2022-12-22T17:39:08;10.40;;;3.47;;
2564;SDS011;1292;48.020;7.822;2022-12-22T17:41:38;6.90;;;2.93;;
2564;SDS011;1292;48.020;7.822;2022-12-22T17:44:09;10.50;;;3.17;;
2564;SDS011;1292;48.020;7.822;2022-12-22T17:46:40;6.03;;;2.77;;
2564;SDS011;1292;48.020;7.822;2022-12-22T17:49:07;5.57;;;2.97;;
2564;SDS011;1292;48.020;7.822;2022-12-22T17:51:35;6.47;;;2.77;;
2564;SDS011;1292;48.020;7.822;2022-12-22T17:54:03;6.27;;;2.43;;
2564;SDS011;1292;48.020;7.822;2022-12-22T17:56:31;8.53;;;2.30;;
2564;SDS011;1292;48.020;7.822;2022-12-22T17:58:57;6.50;;;3.40;;
2564;SDS011;1292;48.020;7.822;2022-12-22T18:01:25;6.90;;;2.40;;
2564;SDS011;1292;48.020;7.822;2022-12-22T18:03:53;4.47;;;2.67;;
2564;SDS011;1292;48.020;7.822;2022-12-22T18:06:21;16.13;;;3.27;;
2564;SDS011;1292;48.020;7.822;2022-12-22T18:08:52;14.50;;;3.13;;
2564;SDS011;1292;48.020;7.822;2022-12-22T18:11:21;7.53;;;2.20;;
2564;SDS011;1292;48.020;7.822;2022-12-22T18:13:49;6.00;;;2.53;;
2564;SDS011;1292;48.020;7.822;2022-12-22T18:16:17;12.47;;;4.27;;
2564;SDS011;1292;48.020;7.822;2022-12-22T18:18:44;9.33;;;2.97;;
2564;SDS011;1292;48.020;7.822;2022-12-22T18:21:15;14.80;;;3.77;;
2564;SDS011;1292;48.020;7.822;2022-12-22T18:23:44;6.33;;;2.90;;
2564;SDS011;1292;48.020;7.822;2022-12-22T18:26:15;5.20;;;2.40;;
2564;SDS011;1292;48.020;7.822;2022-12-22T18:28:46;8.50;;;4.67;;
2564;SDS011;1292;48.020;7.822;2022-12-22T18:31:13;4.83;;;2.63;;
2564;SDS011;1292;48.020;7.822;2022-12-22T18:33:40;6.00;;;3.13;;
2564;SDS011;1292;48.020;7.822;2022-12-22T18:36:10;5.00;;;2.67;;
2564;SDS011;1292;48.020;7.822;2022-12-22T18:38:41;8.13;;;2.77;;
2564;SDS011;1292;48.020;7.822;2022-12-22T18:41:09;12.07;;;2.63;;
2564;SDS011;1292;48.020;7.822;2022-12-22T18:43:41;7.20;;;2.80;;
2564;SDS011;1292;48.020;7.822;2022-12-22T18:46:07;6.20;;;2.73;;
2564;SDS011;1292;48.020;7.822;2022-12-22T18:48:35;9.80;;;3.13;;
2564;SDS011;1292;48.020;7.822;2022-12-22T18:51:03;5.87;;;3.03;;
2564;SDS011;1292;48.020;7.822;2022-12-22T18:53:30;14.17;;;3.90;;
2564;SDS011;1292;48.020;7.822;2022-12-22T18:55:58;4.80;;;2.30;;
2564;SDS011;1292;48.020;7.822;2022-12-22T18:58:25;3.17;;;2.03;;
2564;SDS011;1292;48.020;7.822;2022-12-22T19:00:53;4.37;;;2.20;;
2564;SDS011;1292;48.020;7.822;2022-12-22T19:03:21;6.83;;;2.70;;
2564;SDS011;1292;48.020;7.822;2022-12-22T19:05:50;6.03;;;2.77;;
2564;SDS011;1292;48.020;7.822;2022-12-22T19:08:18;11.63;;;2.60;;
2564;SDS011;1292;48.020;7.822;2022-12-22T19:10:47;6.17;;;2.80;;
2564;SDS011;1292;48.020;7.822;2022-12-22T19:13:17;5.87;;;2.53;;
2564;SDS011;1292;48.020;7.822;2022-12-22T19:15:47;7.27;;;3.17;;
2564;SDS011;1292;48.020;7.822;2022-12-22T19:18:16;10.40;;;2.77;;
2564;SDS011;1292;48.020;7.822;2022-12-22T19:20:44;5.03;;;2.40;;
2564;SDS011;1292;48.020;7.822;2022-12-22T19:23:12;6.23;;;3.00;;
2564;SDS011;1292;48.020;7.822;2022-12-22T19:25:40;14.40;;;3.33;;
2564;SDS011;1292;48.020;7.822;2022-12-22T19:28:11;7.53;;;2.80;;
2564;SDS011;1292;48.020;7.822;2022-12-22T19:30:46;9.77;;;2.60;;
2564;SDS011;1292;48.020;7.822;2022-12-22T19:33:14;9.97;;;3.40;;
2564;SDS011;1292;48.020;7.822;2022-12-22T19:35:46;9.77;;;3.63;;
2564;SDS011;1292;48.020;7.822;2022-12-22T19:38:15;7.13;;;3.03;;
2564;SDS011;1292;48.020;7.822;2022-12-22T19:40:45;6.73;;;2.73;;
2564;SDS011;1292;48.020;7.822;2022-12-22T19:43:14;8.27;;;3.20;;
2564;SDS011;1292;48.020;7.822;2022-12-22T19:45:43;7.40;;;2.70;;
2564;SDS011;1292;48.020;7.822;2022-12-22T19:48:16;8.73;;;4.00;;
2564;SDS011;1292;48.020;7.822;2022-12-22T19:50:46;10.33;;;3.67;;
2564;SDS011;1292;48.020;7.822;2022-12-22T19:53:13;4.97;;;2.93;;
2564;SDS011;1292;48.020;7.822;2022-12-22T19:55:41;12.00;;;3.33;;
2564;SDS011;1292;48.020;7.822;2022-12-22T19:58:12;11.30;;;2.77;;
2564;SDS011;1292;48.020;7.822;2022-12-22T20:00:42;1.33;;;1.10;;
2564;SDS011;1292;48.020;7.822;2022-12-22T20:03:10;8.07;;;2.50;;
2564;SDS011;1292;48.020;7.822;2022-12-22T20:05:40;4.40;;;1.40;;
2564;SDS011;1292;48.020;7.822;2022-12-22T20:08:06;5.13;;;1.30;;
2564;SDS011;1292;48.020;7.822;2022-12-22T20:10:34;3.03;;;1.53;;
2564;SDS011;1292;48.020;7.822;2022-12-22T20:13:03;5.27;;;1.90;;
2564;SDS011;1292;48.020;7.822;2022-12-22T20:15:33;3.70;;;1.47;;
2564;SDS011;1292;48.020;7.822;2022-12-22T20:18:01;6.23;;;1.53;;
2564;SDS011;1292;48.020;7.822;2022-12-22T20:20:37;2.97;;;1.13;;
2564;SDS011;1292;48.020;7.822;2022-12-22T20:23:06;3.77;;;1.60;;
2564;SDS011;1292;48.020;7.822;2022-12-22T20:25:38;3.23;;;1.70;;
2564;SDS011;1292;48.020;7.822;2022-12-22T20:28:10;6.10;;;1.83;;
2564;SDS011;1292;48.020;7.822;2022-12-22T20:30:39;4.57;;;1.50;;
2564;SDS011;1292;48.020;7.822;2022-12-22T20:33:06;9.50;;;2.20;;
2564;SDS011;1292;48.020;7.822;2022-12-22T20:35:34;2.80;;;1.60;;
2564;SDS011;1292;48.020;7.822;2022-12-22T20:38:09;2.43;;;1.60;;
2564;SDS011;1292;48.020;7.822;2022-12-22T20:40:42;3.93;;;1.80;;
2564;SDS011;1292;48.020;7.822;2022-12-22T20:43:11;3.40;;;1.93;;
2564;SDS011;1292;48.020;7.822;2022-12-22T20:45:40;2.93;;;2.10;;
2564;SDS011;1292;48.020;7.822;2022-12-22T20:48:10;2.97;;;1.60;;
2564;SDS011;1292;48.020;7.822;2022-12-22T20:50:45;3.50;;;1.30;;
2564;SDS011;1292;48.020;7.822;2022-12-22T20:53:17;2.43;;;1.00;;
2564;SDS011;1292;48.020;7.822;2022-12-22T20:55:45;1.63;;;0.97;;
2564;SDS011;1292;48.020;7.822;2022-12-22T20:58:14;1.70;;;1.30;;
2564;SDS011;1292;48.020;7.822;2022-12-22T21:00:43;3.13;;;1.00;;
2564;SDS011;1292;48.020;7.822;2022-12-22T21:03:10;3.17;;;1.47;;
2564;SDS011;1292;48.020;7.822;2022-12-22T21:05:38;2.83;;;0.90;;
2564;SDS011;1292;48.020;7.822;2022-12-22T21:08:08;1.00;;;0.90;;
2564;SDS011;1292;48.020;7.822;2022-12-22T21:10:41;3.80;;;1.07;;
2564;SDS011;1292;48.020;7.822;2022-12-22T21:13:09;2.97;;;1.20;;
2564;SDS011;1292;48.020;7.822;2022-12-22T21:15:37;4.63;;;0.90;;
2564;SDS011;1292;48.020;7.822;2022-12-22T21:18:05;1.17;;;1.03;;
2564;SDS011;1292;48.020;7.822;2022-12-22T21:20:37;2.33;;;1.20;;
2564;SDS011;1292;48.020;7.822;2022-12-22T21:23:04;2.87;;;1.53;;
2564;SDS011;1292;48.020;7.822;2022-12-22T21:25:31;2.07;;;1.30;;
2564;SDS011;1292;48.020;7.822;2022-12-22T21:27:59;1.40;;;1.10;;
2564;SDS011;1292;48.020;7.822;2022-12-22T21:30:27;1.27;;;0.93;;
2564;SDS011;1292;48.020;7.822;2022-12-22T21:32:55;9.03;;;2.23;;
2564;SDS011;1292;48.020;7.822;2022-12-22T21:35:23;2.90;;;1.90;;
2564;SDS011;1292;48.020;7.822;2022-12-22T21:37:52;2.87;;;2.10;;
2564;SDS011;1292;48.020;7.822;2022-12-22T21:40:20;5.37;;;1.63;;
2564;SDS011;1292;48.020;7.822;2022-12-22T21:42:49;2.23;;;0.90;;
2564;SDS011;1292;48.020;7.822;2022-12-22T21:45:19;1.73;;;1.30;;
2564;SDS011;1292;48.020;7.822;2022-12-22T21:47:47;3.00;;;1.20;;
2564;SDS011;1292;48.020;7.822;2022-12-22T21:50:16;1.50;;;1.00;;
2564;SDS011;1292;48.020;7.822;2022-12-22T21:52:45;3.57;;;1.43;;
2564;SDS011;1292;48.020;7.822;2022-12-22T21:55:18;1.30;;;1.20;;
2564;SDS011;1292;48.020;7.822;2022-12-22T21:57:47;4.13;;;1.10;;
